Time;durP1;ratioP1;P1;durP2;ratioP2;P2;SDS_P1;SDS_P2;PMS_P1;PMS_P2;Temp;Humidity;BMP_temperature;BMP_pressure;BME280_temperature;BME280_humidity;BME280_pressure;Samples;Min_cycle;Max_cycle;Signal;HPM_P1;HPM_P2
2023/04/08 00:01:36;;;;;;;13.15;8.10;;;5.60;99.90;;;;;;5152483;27;20073;-48
2023/04/08 00:04:02;;;;;;;14.60;8.95;;;5.60;99.90;;;;;;5169907;27;20095;-48
2023/04/08 00:06:30;;;;;;;14.25;8.25;;;5.60;99.90;;;;;;5161626;27;20035;-48
2023/04/08 00:08:57;;;;;;;14.02;8.90;;;5.60;99.90;;;;;;5153375;27;20042;-48
2023/04/08 00:11:23;;;;;;;14.63;8.63;;;5.60;99.90;;;;;;5152659;27;20094;-48
2023/04/08 00:13:50;;;;;;;17.60;8.60;;;5.60;99.90;;;;;;5166570;27;20471;-48
2023/04/08 00:16:17;;;;;;;14.80;9.00;;;5.60;99.90;;;;;;5151992;27;20486;-48
2023/04/08 00:18:44;;;;;;;12.23;8.02;;;5.50;99.90;;;;;;5152265;27;20121;-49
2023/04/08 00:21:10;;;;;;;13.40;8.38;;;5.50;99.90;;;;;;5163471;27;20066;-49
2023/04/08 00:23:37;;;;;;;15.40;8.48;;;5.50;99.90;;;;;;5133372;27;21610;-47
2023/04/08 00:26:04;;;;;;;10.37;6.43;;;5.50;99.90;;;;;;5150504;27;20118;-47
2023/04/08 00:28:31;;;;;;;15.00;9.27;;;5.50;99.90;;;;;;5160198;27;20279;-47
2023/04/08 00:30:57;;;;;;;12.93;8.50;;;5.50;99.90;;;;;;5144551;27;20035;-49
2023/04/08 00:33:24;;;;;;;14.82;9.00;;;5.50;99.90;;;;;;5096988;22;20054;-47
2023/04/08 00:35:51;;;;;;;12.13;6.30;;;5.50;99.90;;;;;;5025528;28;20037;-47
2023/04/08 00:38:18;;;;;;;17.70;10.40;;;5.60;99.90;;;;;;5017625;28;20060;-51
2023/04/08 00:40:45;;;;;;;18.80;9.18;;;5.50;99.90;;;;;;5010734;28;20092;-48
2023/04/08 00:43:11;;;;;;;15.90;9.52;;;5.50;99.90;;;;;;5009441;28;20125;-48
2023/04/08 00:45:38;;;;;;;15.60;9.00;;;5.50;99.90;;;;;;5018406;28;20037;-48
2023/04/08 00:48:05;;;;;;;15.57;8.57;;;5.40;99.90;;;;;;5021541;28;20041;-47
2023/04/08 00:50:32;;;;;;;18.30;8.48;;;5.50;99.90;;;;;;5021216;28;20037;-48
2023/04/08 00:52:58;;;;;;;19.52;9.80;;;5.50;99.90;;;;;;5020066;28;20037;-49
2023/04/08 00:55:25;;;;;;;19.80;10.40;;;5.50;99.90;;;;;;5022664;28;20050;-48
2023/04/08 00:57:52;;;;;;;19.23;10.13;;;5.60;99.90;;;;;;5030010;28;20083;-48
2023/04/08 01:00:19;;;;;;;19.48;9.75;;;5.60;99.90;;;;;;5025941;28;20058;-47
2023/04/08 01:02:46;;;;;;;18.45;9.45;;;5.60;99.90;;;;;;5016540;28;20153;-47
2023/04/08 01:05:34;;;;;;;17.00;9.30;;;5.60;99.90;;;;;;5027753;28;20769;-47
2023/04/08 01:08:04;;;;;;;14.23;8.98;;;5.70;99.90;;;;;;5029246;28;20115;-48
2023/04/08 01:10:33;;;;;;;17.60;9.70;;;5.70;99.90;;;;;;5029728;28;20456;-47
2023/04/08 01:13:07;;;;;;;20.08;8.90;;;5.70;99.90;;;;;;5029519;28;20538;-49
2023/04/08 01:15:37;;;;;;;16.30;9.13;;;5.60;99.90;;;;;;5023883;28;20125;-52
2023/04/08 01:18:11;;;;;;;13.73;8.25;;;5.50;99.90;;;;;;5010185;28;20057;-49
2023/04/08 01:20:41;;;;;;;13.20;8.23;;;5.50;99.90;;;;;;5021068;28;20669;-49
2023/04/08 01:23:27;;;;;;;14.05;8.05;;;5.60;99.90;;;;;;5012114;28;20089;-48
2023/04/08 01:25:54;;;;;;;13.10;7.85;;;5.60;99.90;;;;;;5027774;28;20050;-47
2023/04/08 01:28:25;;;;;;;13.60;7.95;;;5.60;99.90;;;;;;5022459;28;20454;-49
2023/04/08 01:30:55;;;;;;;12.65;7.70;;;5.70;99.90;;;;;;5025819;28;20037;-49
2023/04/08 01:33:23;;;;;;;14.02;7.97;;;5.70;99.90;;;;;;5018409;28;20037;-49
2023/04/08 01:35:55;;;;;;;10.82;7.00;;;5.70;99.90;;;;;;5032938;28;20046;-48
2023/04/08 01:38:27;;;;;;;14.00;7.10;;;5.80;99.90;;;;;;5029213;28;20469;-48
2023/04/08 01:40:55;;;;;;;10.55;6.22;;;5.80;99.90;;;;;;5017449;28;20073;-51
2023/04/08 01:43:24;;;;;;;10.55;6.60;;;5.80;99.90;;;;;;5012060;28;20045;-51
2023/04/08 01:45:56;;;;;;;10.38;6.53;;;5.90;99.90;;;;;;5014717;28;20042;-51
2023/04/08 01:48:23;;;;;;;12.00;6.63;;;5.90;99.90;;;;;;5021322;28;20034;-48
2023/04/08 01:50:51;;;;;;;16.40;8.30;;;5.90;99.90;;;;;;5014290;28;20580;-50
2023/04/08 01:53:18;;;;;;;11.68;7.00;;;5.90;99.90;;;;;;5029227;28;20046;-49
2023/04/08 01:55:48;;;;;;;11.52;6.63;;;5.80;99.90;;;;;;5032335;28;20076;-47
2023/04/08 01:58:20;;;;;;;11.68;6.55;;;5.70;99.90;;;;;;5021446;28;20045;-50
2023/04/08 02:00:47;;;;;;;11.70;6.90;;;5.80;99.90;;;;;;5028341;28;20046;-49
2023/04/08 02:03:17;;;;;;;12.48;6.70;;;5.80;99.90;;;;;;5032518;28;20569;-51
2023/04/08 02:05:45;;;;;;;9.73;5.88;;;5.70;99.90;;;;;;5026379;28;20084;-47
2023/04/08 02:08:12;;;;;;;11.23;6.53;;;5.70;99.90;;;;;;5048065;28;20722;-47
2023/04/08 02:10:39;;;;;;;16.48;7.32;;;5.70;99.90;;;;;;5033334;28;20119;-47
2023/04/08 02:13:07;;;;;;;13.23;7.88;;;5.60;99.90;;;;;;5016349;28;20099;-47
2023/04/08 02:15:35;;;;;;;;;;;5.60;99.90;;;;;;5028205;28;20442;-48
2023/04/08 02:18:12;;;;;;;18.10;8.13;;;5.50;99.90;;;;;;5031499;28;19921;-47
2023/04/08 02:20:46;;;;;;;12.25;7.22;;;5.40;99.90;;;;;;5030279;28;20103;-50
2023/04/08 02:23:18;;;;;;;16.65;7.95;;;5.40;99.90;;;;;;5014233;28;20495;-50
2023/04/08 02:25:47;;;;;;;15.65;6.88;;;5.40;99.90;;;;;;5028813;28;20042;-50
2023/04/08 02:28:16;;;;;;;13.90;6.68;;;5.50;99.90;;;;;;5024205;28;20037;-47
2023/04/08 02:30:49;;;;;;;11.98;6.30;;;5.50;99.90;;;;;;5016979;28;20045;-47
2023/04/08 02:33:19;;;;;;;12.75;5.55;;;5.50;99.90;;;;;;5012890;28;20054;-48
2023/04/08 02:35:49;;;;;;;9.35;5.82;;;5.50;99.90;;;;;;5028741;28;20142;-48
2023/04/08 02:38:16;;;;;;;11.57;5.55;;;5.50;99.90;;;;;;5013995;28;20069;-48
2023/04/08 02:40:42;;;;;;;10.77;5.80;;;5.60;99.90;;;;;;5013337;28;20042;-47
2023/04/08 02:43:09;;;;;;;11.98;5.47;;;5.60;99.90;;;;;;5028434;28;20052;-50
2023/04/08 02:45:39;;;;;;;11.23;6.22;;;5.60;99.90;;;;;;5017816;28;20620;-47
2023/04/08 02:48:08;;;;;;;9.80;5.97;;;5.60;99.90;;;;;;5023436;28;20065;-48
2023/04/08 02:50:35;;;;;;;10.65;6.28;;;5.60;99.90;;;;;;5013265;28;20538;-48
2023/04/08 02:53:02;;;;;;;9.57;4.78;;;5.60;99.90;;;;;;5029457;28;20053;-47
2023/04/08 02:55:31;;;;;;;10.38;6.45;;;5.60;99.90;;;;;;5031771;28;20140;-47
2023/04/08 02:57:57;;;;;;;10.73;6.20;;;5.50;99.90;;;;;;5032407;28;20052;-49
2023/04/08 03:00:24;;;;;;;9.93;6.50;;;5.50;99.90;;;;;;5024155;28;20072;-48
2023/04/08 03:02:51;;;;;;;12.35;6.68;;;5.50;99.90;;;;;;5032943;28;20076;-47
2023/04/08 03:05:18;;;;;;;11.70;6.43;;;5.40;99.90;;;;;;5015198;28;20045;-47
2023/04/08 03:07:45;;;;;;;10.68;6.32;;;5.40;99.90;;;;;;5028295;28;20107;-47
2023/04/08 03:10:12;;;;;;;14.23;6.47;;;5.40;99.90;;;;;;5026346;28;20284;-48
2023/04/08 03:12:38;;;;;;;10.95;6.13;;;5.40;99.90;;;;;;5012643;28;20116;-48
2023/04/08 03:15:06;;;;;;;12.43;7.38;;;5.40;99.90;;;;;;5012992;28;20081;-48
2023/04/08 03:17:33;;;;;;;;;;;5.50;99.90;;;;;;5024222;28;20072;-48
2023/04/08 03:20:03;;;;;;;12.93;8.23;;;5.40;99.90;;;;;;5026941;28;19979;-47
2023/04/08 03:22:30;;;;;;;15.32;8.57;;;5.40;99.90;;;;;;5028909;28;20052;-47
2023/04/08 03:24:57;;;;;;;9.70;5.60;;;5.40;99.90;;;;;;5018475;28;20076;-47
2023/04/08 03:27:23;;;;;;;13.27;8.15;;;5.40;99.90;;;;;;5012663;28;20573;-47
2023/04/08 03:29:51;;;;;;;14.90;7.90;;;5.40;99.90;;;;;;5011915;28;20629;-49
2023/04/08 03:32:19;;;;;;;13.60;7.47;;;5.40;99.90;;;;;;5016850;28;20120;-47
2023/04/08 03:34:45;;;;;;;12.80;7.07;;;5.40;99.90;;;;;;5015594;28;20096;-48
2023/04/08 03:37:12;;;;;;;10.75;6.30;;;5.40;99.90;;;;;;5012138;28;20073;-48
2023/04/08 03:39:39;;;;;;;12.32;6.68;;;5.30;99.90;;;;;;5012081;28;20046;-48
2023/04/08 03:42:05;;;;;;;12.30;7.10;;;5.30;99.90;;;;;;5019610;28;20852;-47
2023/04/08 03:44:32;;;;;;;12.43;7.13;;;5.30;99.90;;;;;;5032041;28;20038;-48
2023/04/08 03:46:59;;;;;;;10.30;5.22;;;5.30;99.90;;;;;;5031536;28;20042;-47
2023/04/08 03:49:25;;;;;;;12.80;7.22;;;5.30;99.90;;;;;;5030624;28;20467;-47
2023/04/08 03:51:52;;;;;;;11.93;7.10;;;5.30;99.90;;;;;;5018085;28;20084;-49
2023/04/08 03:54:19;;;;;;;13.40;6.82;;;5.20;99.90;;;;;;5019743;28;20063;-50
2023/04/08 03:56:45;;;;;;;14.48;7.82;;;5.20;99.90;;;;;;5030939;28;20049;-47
2023/04/08 03:59:12;;;;;;;12.00;7.28;;;5.20;99.90;;;;;;5031246;28;20111;-47
2023/04/08 04:01:39;;;;;;;22.75;7.80;;;5.20;99.90;;;;;;5016842;28;20042;-50
2023/04/08 04:04:07;;;;;;;15.65;7.28;;;5.10;99.90;;;;;;5011915;28;20042;-52
2023/04/08 04:06:34;;;;;;;10.25;6.55;;;4.90;99.90;;;;;;5011784;28;20088;-50
2023/04/08 04:09:01;;;;;;;10.02;4.95;;;4.90;99.90;;;;;;5011385;28;20100;-49
2023/04/08 04:11:28;;;;;;;7.50;4.93;;;4.90;99.90;;;;;;5011718;28;20042;-50
2023/04/08 04:13:55;;;;;;;17.02;7.63;;;4.90;99.90;;;;;;5011633;28;20046;-48
2023/04/08 04:16:21;;;;;;;17.75;7.88;;;4.90;99.90;;;;;;5017561;28;20042;-47
2023/04/08 04:18:48;;;;;;;16.58;8.13;;;4.80;99.90;;;;;;5010929;28;20060;-48
2023/04/08 04:21:15;;;;;;;13.45;7.18;;;4.80;99.90;;;;;;5011285;28;20100;-48
2023/04/08 04:23:42;;;;;;;12.10;7.28;;;4.80;99.90;;;;;;5016534;28;20124;-49
2023/04/08 04:26:10;;;;;;;15.68;7.70;;;4.70;99.90;;;;;;5012714;28;20556;-51
2023/04/08 04:28:37;;;;;;;13.93;7.43;;;4.70;99.90;;;;;;5011081;28;20116;-47
2023/04/08 04:31:04;;;;;;;12.38;7.32;;;4.70;99.90;;;;;;5013908;28;20491;-48
2023/04/08 04:33:31;;;;;;;12.10;7.20;;;4.70;99.90;;;;;;5033145;28;20128;-47
2023/04/08 04:35:57;;;;;;;8.65;5.03;;;4.70;99.90;;;;;;5028597;28;20052;-48
2023/04/08 04:38:24;;;;;;;13.57;7.93;;;4.70;99.90;;;;;;5029481;28;20056;-49
2023/04/08 04:40:51;;;;;;;16.73;8.23;;;4.80;99.90;;;;;;5031227;28;20136;-47
2023/04/08 04:43:18;;;;;;;14.45;7.05;;;4.80;99.90;;;;;;5017674;28;20069;-47
2023/04/08 04:45:44;;;;;;;14.48;7.75;;;4.80;99.90;;;;;;5011246;28;20042;-49
2023/04/08 04:48:11;;;;;;;15.50;8.85;;;4.80;99.90;;;;;;5016491;28;20053;-49
2023/04/08 04:50:38;;;;;;;14.38;7.28;;;4.80;99.90;;;;;;5010730;28;20080;-48
2023/04/08 04:53:05;;;;;;;13.95;7.57;;;4.90;99.90;;;;;;5010903;28;20439;-48
2023/04/08 04:55:31;;;;;;;12.65;7.93;;;4.90;99.90;;;;;;5032480;28;20095;-47
2023/04/08 04:57:58;;;;;;;15.18;7.70;;;4.90;99.90;;;;;;5022877;28;20045;-47
2023/04/08 05:00:25;;;;;;;11.70;6.78;;;4.90;99.90;;;;;;5028298;28;20068;-47
2023/04/08 05:02:51;;;;;;;13.02;6.78;;;4.90;99.90;;;;;;5015162;28;20061;-48
2023/04/08 05:05:18;;;;;;;15.00;7.13;;;4.90;99.90;;;;;;5015266;28;20077;-47
2023/04/08 05:07:45;;;;;;;13.70;7.22;;;5.00;99.90;;;;;;5016426;28;20034;-47
2023/04/08 05:10:12;;;;;;;14.90;6.77;;;5.00;99.90;;;;;;5026332;28;20080;-46
2023/04/08 05:12:39;;;;;;;10.48;6.60;;;5.10;99.90;;;;;;5033628;28;20626;-48
2023/04/08 05:15:06;;;;;;;9.25;5.55;;;5.10;99.90;;;;;;5026520;28;20483;-47
2023/04/08 05:17:32;;;;;;;;;;;5.10;99.90;;;;;;5015470;28;20544;-49
2023/04/08 05:19:59;;;;;;;10.82;6.15;;;5.10;99.90;;;;;;5018197;28;19932;-48
2023/04/08 05:22:26;;;;;;;13.57;7.05;;;5.10;99.90;;;;;;5027658;28;20068;-47
2023/04/08 05:24:53;;;;;;;11.10;6.90;;;5.10;99.90;;;;;;5013525;28;20045;-48
2023/04/08 05:27:20;;;;;;;13.98;7.63;;;5.20;99.90;;;;;;5014409;28;20108;-50
2023/04/08 05:29:47;;;;;;;14.73;7.70;;;5.20;99.90;;;;;;5013648;28;20100;-50
2023/04/08 05:32:15;;;;;;;13.75;8.23;;;5.30;99.90;;;;;;5014242;28;20065;-49
2023/04/08 05:34:42;;;;;;;19.92;9.80;;;5.30;99.90;;;;;;5021575;28;20034;-49
2023/04/08 05:37:09;;;;;;;21.58;10.50;;;5.40;99.90;;;;;;5014511;28;20096;-47
2023/04/08 05:39:36;;;;;;;18.80;10.57;;;5.50;99.90;;;;;;5013540;28;20391;-50
2023/04/08 05:42:03;;;;;;;13.68;7.78;;;5.60;99.90;;;;;;5026168;28;20092;-51
2023/04/08 05:44:30;;;;;;;15.30;8.52;;;5.60;99.90;;;;;;5034168;28;20116;-49
2023/04/08 05:46:57;;;;;;;15.88;9.00;;;5.70;99.90;;;;;;5033195;28;20052;-51
2023/04/08 05:49:24;;;;;;;22.80;11.25;;;5.70;99.90;;;;;;5033773;28;20037;-49
2023/04/08 05:51:50;;;;;;;17.65;9.02;;;5.80;99.90;;;;;;5014446;28;20671;-52
2023/04/08 05:54:17;;;;;;;14.68;8.27;;;5.90;99.90;;;;;;5014352;28;20137;-52
2023/04/08 05:56:45;;;;;;;12.50;7.07;;;6.00;99.90;;;;;;5012988;28;20049;-49
2023/04/08 05:59:12;;;;;;;13.45;7.32;;;6.00;99.90;;;;;;5024366;28;20046;-49
2023/04/08 06:01:38;;;;;;;11.60;6.63;;;6.00;99.90;;;;;;5021062;28;20045;-52
2023/04/08 06:04:05;;;;;;;15.80;8.05;;;6.10;99.90;;;;;;5026230;28;20116;-49
2023/04/08 06:06:32;;;;;;;10.65;6.57;;;6.20;99.90;;;;;;5025911;28;20084;-52
2023/04/08 06:08:59;;;;;;;10.20;5.68;;;6.30;99.90;;;;;;5014071;28;20114;-52
2023/04/08 06:11:26;;;;;;;13.98;7.32;;;6.40;99.90;;;;;;5031568;28;20045;-50
2023/04/08 06:13:53;;;;;;;7.57;4.90;;;6.50;99.90;;;;;;5033064;28;20095;-54
2023/04/08 06:16:19;;;;;;;10.18;5.40;;;6.60;99.90;;;;;;5022396;28;20069;-49
2023/04/08 06:18:47;;;;;;;;;;;6.80;99.90;;;;;;5028617;28;20055;-50
2023/04/08 06:21:15;;;;;;;19.52;8.95;;;6.90;99.90;;;;;;5025352;28;19921;-52
2023/04/08 06:23:41;;;;;;;;;;;6.90;99.90;;;;;;5021759;28;20091;-51
2023/04/08 06:26:08;;;;;;;15.48;9.40;;;6.90;99.90;;;;;;5024119;28;20334;-52
2023/04/08 06:28:35;;;;;;;14.60;8.68;;;7.00;99.90;;;;;;5022758;28;20045;-50
2023/04/08 06:31:01;;;;;;;13.63;8.57;;;7.00;99.90;;;;;;5026119;28;20034;-51
2023/04/08 06:33:28;;;;;;;14.95;8.65;;;7.10;99.90;;;;;;5067085;22;20047;-50
2023/04/08 06:36:05;;;;;;;14.80;8.80;;;7.10;99.90;;;;;;5133257;27;20499;-50
2023/04/08 06:38:32;;;;;;;14.95;8.38;;;7.20;99.90;;;;;;5131901;27;20437;-50
2023/04/08 06:41:06;;;;;;;15.90;9.68;;;7.20;99.90;;;;;;5132209;27;20399;-49
2023/04/08 06:43:34;;;;;;;17.50;8.60;;;7.20;99.90;;;;;;5133736;27;20096;-50
2023/04/08 06:46:01;;;;;;;13.88;8.45;;;7.30;99.90;;;;;;5128952;27;20054;-50
2023/04/08 06:48:29;;;;;;;12.40;7.95;;;7.30;99.90;;;;;;5120692;27;20027;-49
2023/04/08 06:50:57;;;;;;;15.93;7.40;;;7.40;99.90;;;;;;5133093;27;20050;-49
2023/04/08 06:53:25;;;;;;;15.68;7.78;;;7.50;99.90;;;;;;5129751;27;20039;-49
2023/04/08 06:55:51;;;;;;;14.27;8.20;;;7.50;99.90;;;;;;5133164;27;20043;-50
2023/04/08 06:58:18;;;;;;;14.93;7.72;;;7.50;99.90;;;;;;5129403;27;20040;-51
2023/04/08 07:00:46;;;;;;;15.88;8.13;;;7.40;99.90;;;;;;5133280;27;20031;-49
2023/04/08 07:03:12;;;;;;;14.23;8.75;;;7.30;99.90;;;;;;5132251;27;20039;-51
2023/04/08 07:05:41;;;;;;;16.23;8.63;;;7.20;99.90;;;;;;5133686;27;20035;-53
2023/04/08 07:08:08;;;;;;;13.95;8.43;;;7.20;99.90;;;;;;5130863;27;20039;-53
2023/04/08 07:10:35;;;;;;;13.90;8.73;;;7.20;99.90;;;;;;5130124;27;20063;-50
2023/04/08 07:13:01;;;;;;;13.48;8.85;;;7.20;99.90;;;;;;5132625;27;20100;-51
2023/04/08 07:15:28;;;;;;;16.80;8.95;;;7.30;99.90;;;;;;5132164;27;20084;-50
2023/04/08 07:17:55;;;;;;;16.48;9.20;;;7.30;99.90;;;;;;5129935;27;20122;-49
2023/04/08 07:20:38;;;;;;;16.67;9.73;;;7.30;99.90;;;;;;5132116;27;20050;-53
2023/04/08 07:23:11;;;;;;;23.40;10.07;;;7.20;99.90;;;;;;5094915;27;20045;-50
2023/04/08 07:25:38;;;;;;;15.07;9.25;;;7.20;99.90;;;;;;5106037;27;20059;-50
2023/04/08 07:28:05;;;;;;;16.67;9.52;;;7.30;99.90;;;;;;5114490;27;20088;-51
2023/04/08 07:30:32;;;;;;;19.15;9.13;;;7.40;99.90;;;;;;5134111;27;20445;-50
2023/04/08 07:32:58;;;;;;;16.73;10.20;;;7.50;99.90;;;;;;5129234;27;20073;-51
2023/04/08 07:35:27;;;;;;;18.63;10.07;;;7.60;99.90;;;;;;5131148;27;20491;-52
2023/04/08 07:37:54;;;;;;;16.48;9.40;;;7.70;99.90;;;;;;5130466;27;20522;-49
2023/04/08 07:40:21;;;;;;;20.42;8.65;;;7.90;99.90;;;;;;5126765;27;20039;-50
2023/04/08 07:42:48;;;;;;;15.82;9.68;;;8.00;99.90;;;;;;5139458;27;20046;-49
2023/04/08 07:45:15;;;;;;;15.35;8.75;;;8.10;99.90;;;;;;5111404;27;20039;-49
2023/04/08 07:47:42;;;;;;;11.73;7.57;;;8.20;99.90;;;;;;5125640;27;20096;-49
2023/04/08 07:50:09;;;;;;;13.55;7.70;;;8.30;99.90;;;;;;5109831;28;20130;-49
2023/04/08 07:52:36;;;;;;;12.73;7.88;;;8.30;99.90;;;;;;5112282;28;20101;-51
2023/04/08 07:55:04;;;;;;;13.05;8.48;;;8.30;99.90;;;;;;5130160;27;20043;-49
2023/04/08 07:57:31;;;;;;;20.92;9.50;;;8.20;99.90;;;;;;5113649;27;20050;-52
2023/04/08 07:59:58;;;;;;;14.57;8.23;;;8.00;99.90;;;;;;5120057;27;20067;-49
2023/04/08 08:02:25;;;;;;;10.23;6.05;;;7.90;99.90;;;;;;5125762;27;20065;-50
2023/04/08 08:04:52;;;;;;;15.52;9.80;;;7.90;99.90;;;;;;5132189;27;20403;-52
2023/04/08 08:07:19;;;;;;;16.30;10.40;;;7.80;99.90;;;;;;5113555;27;20496;-51
2023/04/08 08:09:45;;;;;;;12.32;6.07;;;7.70;99.90;;;;;;5127992;27;20080;-50
2023/04/08 08:12:12;;;;;;;17.30;10.38;;;7.70;99.90;;;;;;5132311;27;20411;-50
2023/04/08 08:14:39;;;;;;;18.17;10.68;;;7.70;99.90;;;;;;5127794;27;20089;-50
2023/04/08 08:17:06;;;;;;;17.90;10.18;;;7.70;99.90;;;;;;5130618;27;20038;-49
2023/04/08 08:19:33;;;;;;;15.80;9.52;;;7.70;99.90;;;;;;5131714;27;20051;-50
2023/04/08 08:21:59;;;;;;;16.85;10.35;;;7.80;99.90;;;;;;5132138;27;20039;-51
2023/04/08 08:24:26;;;;;;;16.73;9.82;;;7.80;99.90;;;;;;5118818;27;20039;-50
2023/04/08 08:26:53;;;;;;;17.63;10.50;;;7.80;99.90;;;;;;5132190;27;20046;-51
2023/04/08 08:29:19;;;;;;;14.55;7.28;;;7.70;99.90;;;;;;5130645;27;20567;-51
2023/04/08 08:31:47;;;;;;;19.48;10.32;;;7.70;99.90;;;;;;5132318;27;20043;-49
2023/04/08 08:34:14;;;;;;;20.60;10.57;;;7.60;99.90;;;;;;5124612;27;20495;-50
2023/04/08 08:36:41;;;;;;;20.40;9.90;;;7.60;99.90;;;;;;5127799;27;20043;-50
2023/04/08 08:39:07;;;;;;;16.35;8.80;;;7.60;99.90;;;;;;5131285;27;20051;-49
2023/04/08 08:41:37;;;;;;;15.23;10.10;;;7.50;99.90;;;;;;5132109;28;20039;-49
2023/04/08 08:44:05;;;;;;;19.10;9.88;;;7.40;99.90;;;;;;5128773;28;20179;-53
2023/04/08 08:46:33;;;;;;;20.48;10.73;;;7.30;99.90;;;;;;5126066;27;20115;-49
2023/04/08 08:49:00;;;;;;;20.13;10.48;;;7.20;99.90;;;;;;5122954;27;20100;-51
2023/04/08 08:51:28;;;;;;;18.30;11.00;;;7.00;99.90;;;;;;5131692;28;20050;-50
2023/04/08 08:53:55;;;;;;;19.98;10.20;;;6.90;99.90;;;;;;5130381;28;20395;-49
2023/04/08 08:56:22;;;;;;;17.77;9.63;;;6.90;99.90;;;;;;5132103;28;20035;-49
2023/04/08 08:58:49;;;;;;;22.48;11.00;;;6.70;99.90;;;;;;5130435;28;20051;-49
2023/04/08 09:01:36;;;;;;;25.67;11.63;;;6.50;99.90;;;;;;5127724;28;20073;-50
2023/04/08 09:04:06;;;;;;;19.75;9.75;;;6.20;99.90;;;;;;5131692;27;20110;-49
2023/04/08 09:06:35;;;;;;;24.63;12.52;;;6.10;99.90;;;;;;5132227;28;20039;-49
2023/04/08 09:09:04;;;;;;;23.48;11.13;;;6.00;99.90;;;;;;5129521;27;20114;-49
2023/04/08 09:11:32;;;;;;;20.67;10.52;;;6.00;99.90;;;;;;5131737;28;20075;-49
2023/04/08 09:13:58;;;;;;;;;;;6.00;99.90;;;;;;5132102;27;20043;-50
2023/04/08 09:16:26;;;;;;;25.58;11.57;;;6.00;99.90;;;;;;5128262;28;19920;-50
2023/04/08 09:18:53;;;;;;;28.90;11.65;;;5.90;99.90;;;;;;5128952;28;20046;-49
2023/04/08 09:21:23;;;;;;;18.95;9.30;;;5.80;99.90;;;;;;5131852;28;20088;-49
2023/04/08 09:23:51;;;;;;;22.52;11.77;;;5.80;99.90;;;;;;5125438;28;20089;-49
2023/04/08 09:26:21;;;;;;;29.45;12.30;;;5.80;99.90;;;;;;5131189;28;20035;-49
2023/04/08 09:29:07;;;;;;;23.50;13.00;;;5.80;99.90;;;;;;5127249;28;20039;-49
2023/04/08 09:31:58;;;;;;;30.90;15.55;;;5.00;99.90;;;;;;5127358;27;20513;-49
2023/04/08 09:34:26;;;;;;;31.80;16.25;;;5.60;99.90;;;;;;5127218;28;20095;-52
2023/04/08 09:36:54;;;;;;;27.98;15.98;;;5.60;99.90;;;;;;5131224;28;20039;-50
2023/04/08 09:39:21;;;;;;;30.73;16.27;;;5.50;99.90;;;;;;5112143;28;20533;-49
2023/04/08 09:41:50;;;;;;;29.73;16.08;;;5.50;99.90;;;;;;5130942;28;20096;-49
2023/04/08 09:44:19;;;;;;;29.00;15.25;;;5.60;99.90;;;;;;5126511;28;20035;-50
2023/04/08 09:47:05;;;;;;;30.67;17.10;;;5.60;99.90;;;;;;5129736;27;20039;-48
2023/04/08 09:50:04;;;;;;;27.98;15.35;;;5.80;99.90;;;;;;5132163;27;20073;-49
2023/04/08 09:52:38;;;;;;;28.10;14.55;;;5.90;99.90;;;;;;5130870;27;20092;-48
2023/04/08 09:55:08;;;;;;;27.75;15.20;;;6.00;99.90;;;;;;5130381;27;20428;-49
2023/04/08 09:57:43;;;;;;;26.42;14.27;;;6.10;99.90;;;;;;5134749;27;20028;-49
2023/04/08 10:00:13;;;;;;;29.30;16.33;;;6.00;99.90;;;;;;5132534;27;20507;-49
2023/04/08 10:02:45;;;;;;;28.38;15.00;;;5.90;99.90;;;;;;5134658;27;20482;-49
2023/04/08 10:05:13;;;;;;;26.27;14.70;;;5.90;99.90;;;;;;5122195;27;20051;-50
2023/04/08 10:07:41;;;;;;;24.38;13.13;;;5.90;99.90;;;;;;5133447;27;20035;-50
2023/04/08 10:10:10;;;;;;;;;;;5.90;99.90;;;;;;5133785;27;20031;-50
2023/04/08 10:12:37;;;;;;;23.90;13.65;;;5.80;99.90;;;;;;5135088;27;19959;-49
2023/04/08 10:15:32;;;;;;;20.63;12.35;;;5.70;99.90;;;;;;5127861;27;20051;-50
2023/04/08 10:18:03;;;;;;;21.33;12.80;;;5.70;99.90;;;;;;5131636;27;20074;-51
2023/04/08 10:20:36;;;;;;;21.20;11.60;;;5.60;99.90;;;;;;5134183;27;20407;-49
2023/04/08 10:23:12;;;;;;;17.02;10.43;;;5.50;99.90;;;;;;5133669;27;20598;-50
2023/04/08 10:25:43;;;;;;;16.98;10.13;;;5.50;99.90;;;;;;5111630;28;20484;-49
2023/04/08 10:28:10;;;;;;;19.73;10.43;;;5.30;99.90;;;;;;5108619;28;20042;-49
2023/04/08 10:30:48;;;;;;;16.67;10.27;;;5.30;99.90;;;;;;5119334;27;20492;-50
2023/04/08 10:33:30;;;;;;;18.05;11.38;;;5.20;99.90;;;;;;5132702;27;20096;-51
2023/04/08 10:36:11;;;;;;;18.15;11.18;;;5.30;99.90;;;;;;5130279;27;20073;-53
2023/04/08 10:38:41;;;;;;;22.10;11.40;;;5.40;99.90;;;;;;5133691;27;20051;-50
2023/04/08 10:41:20;;;;;;;22.98;12.50;;;5.30;99.90;;;;;;5133827;27;20492;-51
2023/04/08 10:43:47;;;;;;;20.85;11.15;;;5.30;99.90;;;;;;5130846;27;20051;-52
2023/04/08 10:46:14;;;;;;;20.00;11.05;;;5.10;99.90;;;;;;5133761;27;20329;-50
2023/04/08 10:48:40;;;;;;;16.27;9.35;;;5.00;99.90;;;;;;5133509;27;20092;-49
2023/04/08 10:51:07;;;;;;;21.08;11.10;;;5.00;99.90;;;;;;5130038;27;20114;-49
2023/04/08 10:53:36;;;;;;;20.00;10.77;;;4.90;99.90;;;;;;5132551;27;20487;-49
2023/04/08 10:56:17;;;;;;;17.75;10.32;;;4.90;99.90;;;;;;5132164;27;20104;-49
2023/04/08 10:58:52;;;;;;;20.52;11.20;;;4.90;99.90;;;;;;5114010;27;20384;-49
2023/04/08 11:01:18;;;;;;;19.80;11.77;;;4.90;99.90;;;;;;5131241;27;20043;-49
2023/04/08 11:03:45;;;;;;;20.92;10.82;;;4.90;99.90;;;;;;5129634;27;20039;-49
2023/04/08 11:06:13;;;;;;;20.80;11.25;;;4.90;99.90;;;;;;5133531;27;20078;-49
2023/04/08 11:08:40;;;;;;;;;;;4.90;99.90;;;;;;5132960;27;20038;-49
2023/04/08 11:11:10;;;;;;;17.17;10.63;;;5.00;99.90;;;;;;5133597;27;20295;-49
2023/04/08 11:13:41;;;;;;;18.50;10.65;;;5.00;99.90;;;;;;5126334;27;20027;-50
2023/04/08 11:16:19;;;;;;;20.80;11.48;;;5.10;99.90;;;;;;5132705;27;20046;-50
2023/04/08 11:18:46;;;;;;;22.88;12.88;;;5.10;99.90;;;;;;5132641;27;20095;-50
2023/04/08 11:21:15;;;;;;;19.13;11.10;;;5.20;99.90;;;;;;5131998;27;20043;-49
2023/04/08 11:23:42;;;;;;;19.50;11.40;;;5.20;99.90;;;;;;5128225;27;20039;-50
2023/04/08 11:26:10;;;;;;;19.67;12.20;;;5.20;99.90;;;;;;5132642;27;20075;-52
2023/04/08 11:28:37;;;;;;;23.63;13.38;;;5.30;99.90;;;;;;5128241;27;20030;-53
2023/04/08 11:31:04;;;;;;;;;;;5.40;99.90;;;;;;5129892;27;20515;-50
2023/04/08 11:33:33;;;;;;;22.73;12.82;;;5.40;99.90;;;;;;5132363;27;19972;-50
2023/04/08 11:36:03;;;;;;;26.10;12.90;;;5.40;99.90;;;;;;5129241;27;20097;-50
2023/04/08 11:38:30;;;;;;;21.65;12.63;;;5.40;99.90;;;;;;5132131;27;20070;-50
2023/04/08 11:40:58;;;;;;;25.27;14.15;;;5.40;99.90;;;;;;5132507;27;20495;-49
2023/04/08 11:43:25;;;;;;;22.10;12.95;;;5.40;99.90;;;;;;5132309;27;20058;-50
2023/04/08 11:45:52;;;;;;;24.33;14.38;;;5.50;99.90;;;;;;5130100;27;20360;-49
2023/04/08 11:48:19;;;;;;;23.58;13.45;;;5.50;99.90;;;;;;5132186;27;20051;-50
2023/04/08 11:50:45;;;;;;;25.05;13.60;;;5.50;99.90;;;;;;5128619;27;20043;-48
2023/04/08 11:53:20;;;;;;;22.02;13.57;;;5.70;99.90;;;;;;5132164;27;20043;-49
2023/04/08 11:55:48;;;;;;;28.17;13.60;;;5.60;99.90;;;;;;5113923;27;20399;-50
2023/04/08 11:58:15;;;;;;;22.92;13.10;;;5.60;99.90;;;;;;5129639;27;20096;-50
2023/04/08 12:00:42;;;;;;;;;;;5.70;99.90;;;;;;5131141;27;20066;-50
2023/04/08 12:03:09;;;;;;;22.90;13.43;;;5.70;99.90;;;;;;5131980;27;19973;-50
2023/04/08 12:05:37;;;;;;;26.23;14.38;;;5.60;99.90;;;;;;5131966;27;20042;-50
2023/04/08 12:08:04;;;;;;;22.17;14.45;;;5.60;99.90;;;;;;5112151;27;20043;-50
2023/04/08 12:10:31;;;;;;;23.70;14.13;;;5.70;99.90;;;;;;5131229;27;20031;-49
2023/04/08 12:12:58;;;;;;;21.90;13.93;;;5.60;99.90;;;;;;5131616;27;20122;-49
2023/04/08 12:15:24;;;;;;;24.25;14.27;;;5.60;99.90;;;;;;5130434;27;20111;-53
2023/04/08 12:17:51;;;;;;;28.52;14.32;;;5.70;99.90;;;;;;5131841;27;20074;-50
2023/04/08 12:20:18;;;;;;;24.13;14.32;;;5.80;99.90;;;;;;5131769;27;20103;-49
2023/04/08 12:22:45;;;;;;;23.52;13.95;;;5.80;99.90;;;;;;5129890;27;20035;-49
2023/04/08 12:25:12;;;;;;;24.55;14.95;;;5.90;99.90;;;;;;5131837;27;20101;-50
2023/04/08 12:27:39;;;;;;;22.90;14.20;;;5.80;99.90;;;;;;5131420;27;20099;-49
2023/04/08 12:30:06;;;;;;;23.90;14.10;;;5.70;99.90;;;;;;5131613;27;20073;-49
2023/04/08 12:32:33;;;;;;;;;;;5.80;99.90;;;;;;5128031;27;20042;-49
2023/04/08 12:35:00;;;;;;;23.90;13.85;;;5.90;99.90;;;;;;5104423;22;19955;-49
2023/04/08 12:37:27;;;;;;;24.50;13.80;;;5.90;99.90;;;;;;5083010;28;20104;-52
2023/04/08 12:39:54;;;;;;;26.35;15.15;;;5.90;99.90;;;;;;5086303;28;20032;-49
2023/04/08 12:42:21;;;;;;;27.48;15.30;;;6.00;99.90;;;;;;5087340;28;20404;-49
2023/04/08 12:44:47;;;;;;;25.00;14.82;;;6.10;99.90;;;;;;5074370;28;20040;-48
2023/04/08 12:47:14;;;;;;;16.85;9.90;;;6.10;99.90;;;;;;5053763;28;20489;-49
2023/04/08 12:49:41;;;;;;;25.83;13.95;;;6.10;99.90;;;;;;5053781;28;20124;-48
2023/04/08 12:52:16;;;;;;;26.33;15.02;;;6.20;99.90;;;;;;5062407;28;20115;-49
2023/04/08 12:54:43;;;;;;;25.13;14.93;;;6.20;99.90;;;;;;5070156;28;20051;-51